createdAt,value
2022-11-13T00:00:18.591Z,1020.85
2022-11-13T00:01:18.569Z,1020.86
2022-11-13T00:02:18.643Z,1020.80
2022-11-13T00:03:18.550Z,1020.81
2022-11-13T00:04:18.527Z,1020.80
2022-11-13T00:05:18.504Z,1020.81
2022-11-13T00:06:18.544Z,1020.77
2022-11-13T00:07:18.533Z,1020.76
2022-11-13T00:08:18.491Z,1020.78
2022-11-13T00:09:18.465Z,1020.78
2022-11-13T00:10:18.478Z,1020.72
2022-11-13T00:11:18.607Z,1020.73
2022-11-13T00:12:18.437Z,1020.72
2022-11-13T00:13:18.422Z,1020.72
2022-11-13T00:14:18.442Z,1020.75
2022-11-13T00:15:18.406Z,1020.69
2022-11-13T00:16:18.399Z,1020.69
2022-11-13T00:17:18.378Z,1020.71
2022-11-13T00:18:18.380Z,1020.64
2022-11-13T00:19:18.367Z,1020.67
2022-11-13T00:20:18.352Z,1020.68
2022-11-13T00:21:18.338Z,1020.63
2022-11-13T00:22:18.331Z,1020.62
2022-11-13T00:23:18.308Z,1020.64
2022-11-13T00:24:18.312Z,1020.61
2022-11-13T00:25:18.319Z,1020.63
2022-11-13T00:26:18.398Z,1020.63
2022-11-13T00:27:18.279Z,1020.65
2022-11-13T00:28:18.289Z,1020.59
2022-11-13T00:29:18.279Z,1020.56
2022-11-13T00:30:19.629Z,1020.54
2022-11-13T00:31:18.228Z,1020.53
2022-11-13T00:32:18.242Z,1020.52
2022-11-13T00:33:38.319Z,1020.52
2022-11-13T00:34:46.008Z,1020.54
2022-11-13T00:35:19.204Z,1020.48
2022-11-13T00:36:18.176Z,1020.47
2022-11-13T00:37:18.171Z,1020.49
2022-11-13T00:38:18.153Z,1020.47
2022-11-13T00:39:18.177Z,1020.49
2022-11-13T00:40:18.159Z,1020.47
2022-11-13T00:41:18.122Z,1020.46
2022-11-13T00:42:18.103Z,1020.50
2022-11-13T00:43:18.122Z,1020.47
2022-11-13T00:44:18.092Z,1020.47
2022-11-13T00:45:18.070Z,1020.45
2022-11-13T00:46:18.080Z,1020.49
2022-11-13T00:47:18.048Z,1020.48
2022-11-13T00:48:18.041Z,1020.46
2022-11-13T00:49:18.215Z,1020.46
2022-11-13T00:50:18.032Z,1020.44
2022-11-13T00:51:18.043Z,1020.44
2022-11-13T00:52:18.055Z,1020.44
2022-11-13T00:53:18.381Z,1020.45
2022-11-13T00:54:17.975Z,1020.42
2022-11-13T00:55:17.974Z,1020.40
2022-11-13T00:56:17.976Z,1020.44
2022-11-13T00:57:17.934Z,1020.38
2022-11-13T00:58:17.933Z,1020.38
2022-11-13T00:59:17.912Z,1020.38
2022-11-13T01:00:17.903Z,1020.37
2022-11-13T01:01:17.972Z,1020.35
2022-11-13T01:02:17.901Z,1020.35
2022-11-13T01:03:17.877Z,1020.36
2022-11-13T01:04:17.873Z,1020.37
2022-11-13T01:05:17.865Z,1020.38
2022-11-13T01:06:17.853Z,1020.35
2022-11-13T01:07:17.882Z,1020.33
2022-11-13T01:08:17.830Z,1020.33
2022-11-13T01:09:17.794Z,1020.37
2022-11-13T01:10:17.808Z,1020.35
2022-11-13T01:11:17.794Z,1020.32
2022-11-13T01:12:17.771Z,1020.32
2022-11-13T01:13:17.768Z,1020.30
2022-11-13T01:14:17.790Z,1020.28
2022-11-13T01:15:17.762Z,1020.28
2022-11-13T01:16:17.849Z,1020.27
2022-11-13T01:17:17.720Z,1020.27
2022-11-13T01:18:17.721Z,1020.26
2022-11-13T01:19:17.729Z,1020.27
2022-11-13T01:20:17.728Z,1020.25
2022-11-13T01:21:17.678Z,1020.23
2022-11-13T01:22:17.693Z,1020.23
2022-11-13T01:23:17.666Z,1020.21
2022-11-13T01:24:17.805Z,1020.19
2022-11-13T01:25:17.628Z,1020.17
2022-11-13T01:26:17.819Z,1020.22
2022-11-13T01:27:17.596Z,1020.23
2022-11-13T01:28:17.596Z,1020.23
2022-11-13T01:29:17.606Z,1020.26
2022-11-13T01:30:17.627Z,1020.28
2022-11-13T01:31:17.590Z,1020.24
2022-11-13T01:32:17.561Z,1020.26
2022-11-13T01:33:17.538Z,1020.22
2022-11-13T01:34:17.577Z,1020.20
2022-11-13T01:35:17.525Z,1020.13
2022-11-13T01:36:17.516Z,1020.07
2022-11-13T01:37:17.517Z,1020.10
2022-11-13T01:38:17.516Z,1020.09
2022-11-13T01:39:17.489Z,1020.02
2022-11-13T01:40:17.468Z,1020.04
2022-11-13T01:41:22.862Z,1020.07
2022-11-13T01:42:18.438Z,1020.05
2022-11-13T01:43:17.428Z,1020.08
2022-11-13T01:44:17.428Z,1020.07
2022-11-13T01:45:17.412Z,1020.10
2022-11-13T01:46:17.422Z,1020.15
2022-11-13T01:47:17.390Z,1020.08
2022-11-13T01:48:17.378Z,1020.09
2022-11-13T01:49:17.370Z,1020.11
2022-11-13T01:50:17.372Z,1020.11
2022-11-13T01:51:17.348Z,1020.17
2022-11-13T01:52:17.339Z,1020.14
2022-11-13T01:53:17.330Z,1020.14
2022-11-13T01:54:17.328Z,1020.12
2022-11-13T01:55:17.298Z,1020.13
2022-11-13T01:56:17.298Z,1020.08
2022-11-13T01:57:17.280Z,1020.08
2022-11-13T01:58:17.280Z,1020.10
2022-11-13T01:59:17.263Z,1020.08
2022-11-13T02:00:17.270Z,1020.07
2022-11-13T02:01:17.252Z,1020.02
2022-11-13T02:02:17.250Z,1020.03
2022-11-13T02:03:17.220Z,1020.04
2022-11-13T02:04:17.213Z,1020.03
2022-11-13T02:05:17.189Z,1020.00
2022-11-13T02:06:17.229Z,1020.01
2022-11-13T02:07:17.209Z,1019.98
2022-11-13T02:08:17.171Z,1019.94
2022-11-13T02:09:17.149Z,1019.93
2022-11-13T02:10:17.151Z,1019.90
2022-11-13T02:11:17.138Z,1019.88
2022-11-13T02:12:17.142Z,1019.94
2022-11-13T02:13:17.117Z,1019.86
2022-11-13T02:14:17.102Z,1019.85
2022-11-13T02:15:17.093Z,1019.87
2022-11-13T02:16:17.122Z,1019.83
2022-11-13T02:17:17.078Z,1019.81
2022-11-13T02:18:17.054Z,1019.84
2022-11-13T02:19:17.043Z,1019.79
2022-11-13T02:20:17.064Z,1019.78
2022-11-13T02:21:17.048Z,1019.79
2022-11-13T02:22:17.015Z,1019.75
2022-11-13T02:23:17.000Z,1019.76
2022-11-13T02:24:16.994Z,1019.70
2022-11-13T02:25:17.033Z,1019.74
2022-11-13T02:26:16.997Z,1019.73
2022-11-13T02:27:16.951Z,1019.71
2022-11-13T02:28:16.963Z,1019.67
2022-11-13T02:29:16.939Z,1019.70
2022-11-13T02:30:19.784Z,1019.62
2022-11-13T02:31:17.953Z,1019.65
2022-11-13T02:32:16.927Z,1019.62
2022-11-13T02:33:16.883Z,1019.62
2022-11-13T02:34:16.926Z,1019.61
2022-11-13T02:35:16.862Z,1019.60
2022-11-13T02:36:16.883Z,1019.61
2022-11-13T02:37:16.864Z,1019.58
2022-11-13T02:38:16.848Z,1019.61
2022-11-13T02:39:16.825Z,1019.58
2022-11-13T02:40:16.850Z,1019.62
2022-11-13T02:41:16.821Z,1019.60
2022-11-13T02:42:16.793Z,1019.59
2022-11-13T02:43:16.776Z,1019.61
2022-11-13T02:44:16.776Z,1019.62
2022-11-13T02:45:16.756Z,1019.61
2022-11-13T02:46:16.766Z,1019.58
2022-11-13T02:47:16.740Z,1019.56
2022-11-13T02:48:16.727Z,1019.59
2022-11-13T02:49:16.723Z,1019.54
2022-11-13T02:50:16.721Z,1019.56
2022-11-13T02:51:16.698Z,1019.51
2022-11-13T02:52:16.700Z,1019.52
2022-11-13T02:53:16.658Z,1019.49
2022-11-13T02:54:17.225Z,1019.50
2022-11-13T02:55:16.657Z,1019.44
2022-11-13T02:56:16.676Z,1019.40
2022-11-13T02:57:16.629Z,1019.42
2022-11-13T02:58:16.623Z,1019.37
2022-11-13T02:59:16.607Z,1019.37
2022-11-13T03:00:16.605Z,1019.32
2022-11-13T03:01:16.669Z,1019.29
2022-11-13T03:02:16.607Z,1019.32
2022-11-13T03:03:29.077Z,1019.32
2022-11-13T03:04:17.568Z,1019.33
2022-11-13T03:05:16.593Z,1019.30
2022-11-13T03:06:16.553Z,1019.28
2022-11-13T03:07:16.549Z,1019.26
2022-11-13T03:08:16.528Z,1019.26
2022-11-13T03:09:16.498Z,1019.25
2022-11-13T03:10:16.487Z,1019.27
2022-11-13T03:11:16.481Z,1019.26
2022-11-13T03:12:16.471Z,1019.24
2022-11-13T03:13:16.458Z,1019.25
2022-11-13T03:14:16.711Z,1019.25
2022-11-13T03:15:16.482Z,1019.23
2022-11-13T03:16:16.515Z,1019.20
2022-11-13T03:17:16.460Z,1019.23
2022-11-13T03:18:16.406Z,1019.20
2022-11-13T03:19:16.411Z,1019.19
2022-11-13T03:20:16.387Z,1019.18
2022-11-13T03:21:16.428Z,1019.22
2022-11-13T03:22:16.354Z,1019.22
2022-11-13T03:23:16.344Z,1019.24
2022-11-13T03:24:16.365Z,1019.22
2022-11-13T03:25:16.325Z,1019.20
2022-11-13T03:26:16.375Z,1019.24
2022-11-13T03:27:16.344Z,1019.25
2022-11-13T03:28:16.306Z,1019.26
2022-11-13T03:29:16.282Z,1019.20
2022-11-13T03:30:16.302Z,1019.21
2022-11-13T03:31:16.275Z,1019.27
2022-11-13T03:32:16.260Z,1019.27
2022-11-13T03:33:16.233Z,1019.28
2022-11-13T03:34:16.224Z,1019.34
2022-11-13T03:35:16.207Z,1019.32
2022-11-13T03:36:16.211Z,1019.34
2022-11-13T03:37:16.183Z,1019.33
2022-11-13T03:38:16.225Z,1019.33
2022-11-13T03:39:16.162Z,1019.32
2022-11-13T03:40:16.179Z,1019.31
2022-11-13T03:41:16.132Z,1019.32
2022-11-13T03:42:16.129Z,1019.31
2022-11-13T03:43:16.125Z,1019.37
2022-11-13T03:44:16.115Z,1019.38
2022-11-13T03:45:16.105Z,1019.36
2022-11-13T03:46:16.155Z,1019.34
2022-11-13T03:47:16.073Z,1019.37
2022-11-13T03:48:16.071Z,1019.36
2022-11-13T03:49:16.064Z,1019.35
2022-11-13T03:50:16.075Z,1019.39
2022-11-13T03:51:16.034Z,1019.33
2022-11-13T03:52:16.023Z,1019.34
2022-11-13T03:53:16.014Z,1019.35
2022-11-13T03:54:15.994Z,1019.31
2022-11-13T03:55:16.006Z,1019.30
2022-11-13T03:56:15.975Z,1019.32
2022-11-13T03:57:15.956Z,1019.34
2022-11-13T03:58:16.065Z,1019.29
2022-11-13T03:59:15.942Z,1019.30
2022-11-13T04:00:15.933Z,1019.30
2022-11-13T04:01:16.054Z,1019.33
2022-11-13T04:02:15.994Z,1019.30
2022-11-13T04:03:15.895Z,1019.31
2022-11-13T04:04:15.898Z,1019.31
2022-11-13T04:05:21.501Z,1019.27
2022-11-13T04:06:16.873Z,1019.30
2022-11-13T04:07:15.888Z,1019.29
2022-11-13T04:08:15.875Z,1019.24
2022-11-13T04:09:15.825Z,1019.24
2022-11-13T04:10:15.852Z,1019.26
2022-11-13T04:11:15.817Z,1019.25
2022-11-13T04:12:15.804Z,1019.26
2022-11-13T04:13:15.790Z,1019.28
2022-11-13T04:14:15.847Z,1019.26
2022-11-13T04:15:15.765Z,1019.23
2022-11-13T04:16:15.885Z,1019.19
2022-11-13T04:17:15.747Z,1019.16
2022-11-13T04:18:15.749Z,1019.15
2022-11-13T04:19:15.752Z,1019.21
2022-11-13T04:20:15.717Z,1019.20
2022-11-13T04:21:15.717Z,1019.21
2022-11-13T04:22:15.729Z,1019.20
2022-11-13T04:23:15.695Z,1019.18
2022-11-13T04:24:15.728Z,1019.20
2022-11-13T04:25:15.658Z,1019.18
2022-11-13T04:26:15.657Z,1019.14
2022-11-13T04:27:15.630Z,1019.14
2022-11-13T04:28:15.627Z,1019.12
2022-11-13T04:29:15.617Z,1019.07
2022-11-13T04:30:15.637Z,1019.11
2022-11-13T04:31:15.698Z,1019.10
2022-11-13T04:32:15.601Z,1019.11
2022-11-13T04:33:15.574Z,1019.07
2022-11-13T04:34:15.559Z,1019.07
2022-11-13T04:35:15.549Z,1019.12
2022-11-13T04:36:15.565Z,1019.08
2022-11-13T04:37:15.527Z,1019.06
2022-11-13T04:38:15.524Z,1019.04
2022-11-13T04:39:15.497Z,1019.03
2022-11-13T04:40:15.498Z,1019.01
2022-11-13T04:41:15.489Z,1019.00
2022-11-13T04:42:15.468Z,1019.00
2022-11-13T04:43:15.457Z,1018.98
2022-11-13T04:44:15.448Z,1018.99
2022-11-13T04:45:15.450Z,1018.94
2022-11-13T04:46:15.430Z,1018.94
2022-11-13T04:47:15.409Z,1018.89
2022-11-13T04:48:15.422Z,1018.89
2022-11-13T04:49:15.390Z,1018.81
2022-11-13T04:50:15.390Z,1018.78
2022-11-13T04:51:15.386Z,1018.80
2022-11-13T04:52:15.411Z,1018.77
2022-11-13T04:53:15.359Z,1018.74
2022-11-13T04:54:15.337Z,1018.72
2022-11-13T04:55:15.334Z,1018.73
2022-11-13T04:56:15.324Z,1018.71
2022-11-13T04:57:15.303Z,1018.68
2022-11-13T04:58:15.292Z,1018.69
2022-11-13T04:59:15.279Z,1018.67
2022-11-13T05:00:15.283Z,1018.67
2022-11-13T05:01:15.319Z,1018.71
2022-11-13T05:02:15.251Z,1018.73
2022-11-13T05:03:15.230Z,1018.73
2022-11-13T05:04:15.267Z,1018.69
2022-11-13T05:05:15.218Z,1018.73
2022-11-13T05:06:15.249Z,1018.66
2022-11-13T05:07:15.236Z,1018.72
2022-11-13T05:08:15.185Z,1018.67
2022-11-13T05:09:15.181Z,1018.68
2022-11-13T05:10:15.205Z,1018.65
2022-11-13T05:11:15.353Z,1018.69
2022-11-13T05:12:15.171Z,1018.67
2022-11-13T05:13:15.119Z,1018.65
2022-11-13T05:14:15.173Z,1018.66
2022-11-13T05:15:15.121Z,1018.66
2022-11-13T05:16:15.146Z,1018.64
2022-11-13T05:17:15.072Z,1018.65
2022-11-13T05:18:15.061Z,1018.66
2022-11-13T05:19:15.255Z,1018.70
2022-11-13T05:20:15.161Z,1018.70
2022-11-13T05:21:15.037Z,1018.67
2022-11-13T05:22:15.021Z,1018.67
2022-11-13T05:23:15.002Z,1018.66
2022-11-13T05:24:15.021Z,1018.66
2022-11-13T05:25:14.996Z,1018.61
2022-11-13T05:26:15.057Z,1018.59
2022-11-13T05:27:17.485Z,1018.61
2022-11-13T05:28:14.955Z,1018.59
2022-11-13T05:29:15.673Z,1018.61
2022-11-13T05:30:14.956Z,1018.56
2022-11-13T05:31:14.937Z,1018.58
2022-11-13T05:32:14.984Z,1018.55
2022-11-13T05:33:14.908Z,1018.52
2022-11-13T05:34:14.899Z,1018.55
2022-11-13T05:35:14.899Z,1018.53
2022-11-13T05:36:14.925Z,1018.49
2022-11-13T05:37:14.911Z,1018.57
2022-11-13T05:38:14.845Z,1018.49
2022-11-13T05:39:14.823Z,1018.47
2022-11-13T05:40:14.836Z,1018.52
2022-11-13T05:41:14.813Z,1018.52
2022-11-13T05:42:14.805Z,1018.48
2022-11-13T05:43:14.783Z,1018.46
2022-11-13T05:44:14.786Z,1018.45
2022-11-13T05:45:14.766Z,1018.46
2022-11-13T05:46:14.764Z,1018.44
2022-11-13T05:47:14.742Z,1018.41
2022-11-13T05:48:14.737Z,1018.44
2022-11-13T05:49:14.724Z,1018.40
2022-11-13T05:50:14.717Z,1018.42
2022-11-13T05:51:14.705Z,1018.45
2022-11-13T05:52:14.707Z,1018.41
2022-11-13T05:53:14.673Z,1018.36
2022-11-13T05:54:14.674Z,1018.35
2022-11-13T05:55:14.664Z,1018.38
2022-11-13T05:56:14.695Z,1018.38
2022-11-13T05:57:14.626Z,1018.35
2022-11-13T05:58:14.636Z,1018.35
2022-11-13T05:59:14.613Z,1018.39
2022-11-13T06:00:14.621Z,1018.35
2022-11-13T06:01:14.607Z,1018.38
2022-11-13T06:02:14.651Z,1018.34
2022-11-13T06:03:14.556Z,1018.35
2022-11-13T06:04:14.717Z,1018.35
2022-11-13T06:05:14.546Z,1018.33
2022-11-13T06:06:14.536Z,1018.31
2022-11-13T06:07:14.598Z,1018.28
2022-11-13T06:08:14.526Z,1018.26
2022-11-13T06:09:14.517Z,1018.22
2022-11-13T06:10:14.486Z,1018.20
2022-11-13T06:11:14.488Z,1018.19
2022-11-13T06:12:14.465Z,1018.14
2022-11-13T06:13:14.467Z,1018.14
2022-11-13T06:14:14.457Z,1018.12
2022-11-13T06:15:14.438Z,1018.15
2022-11-13T06:16:14.459Z,1018.09
2022-11-13T06:17:14.419Z,1018.10
2022-11-13T06:18:14.413Z,1018.13
2022-11-13T06:19:14.389Z,1018.09
2022-11-13T06:20:14.376Z,1018.10
2022-11-13T06:21:14.387Z,1018.17
2022-11-13T06:22:14.360Z,1018.10
2022-11-13T06:23:14.371Z,1018.14
2022-11-13T06:24:14.328Z,1018.11
2022-11-13T06:25:14.328Z,1018.16
2022-11-13T06:26:14.338Z,1018.13
2022-11-13T06:27:14.312Z,1018.17
2022-11-13T06:28:14.298Z,1018.14
2022-11-13T06:29:14.311Z,1018.12
2022-11-13T06:30:14.279Z,1018.14
2022-11-13T06:31:14.278Z,1018.14
2022-11-13T06:32:14.256Z,1018.15
2022-11-13T06:33:14.251Z,1018.09
2022-11-13T06:34:14.238Z,1018.11
2022-11-13T06:35:14.246Z,1018.08
2022-11-13T06:36:14.234Z,1018.07
2022-11-13T06:37:14.231Z,1018.08
2022-11-13T06:38:14.259Z,1018.06
2022-11-13T06:39:14.218Z,1018.04
2022-11-13T06:40:14.169Z,1018.05
2022-11-13T06:41:14.184Z,1018.01
2022-11-13T06:42:14.202Z,1018.01
2022-11-13T06:43:14.190Z,1018.03
2022-11-13T06:44:14.132Z,1018.04
2022-11-13T06:45:14.122Z,1018.01
2022-11-13T06:46:14.140Z,1017.97
2022-11-13T06:47:14.092Z,1017.98
2022-11-13T06:48:14.157Z,1017.96
2022-11-13T06:49:14.071Z,1017.95
2022-11-13T06:50:14.193Z,1017.95
2022-11-13T06:51:14.058Z,1017.96
2022-11-13T06:52:14.045Z,1017.98
2022-11-13T06:53:14.032Z,1017.92
2022-11-13T06:54:14.012Z,1017.89
2022-11-13T06:55:14.021Z,1017.87
2022-11-13T06:56:13.996Z,1017.79
2022-11-13T06:57:13.982Z,1017.82
2022-11-13T06:58:13.974Z,1017.84
2022-11-13T06:59:13.963Z,1017.78
2022-11-13T07:00:13.975Z,1017.80
2022-11-13T07:01:14.019Z,1017.82
2022-11-13T07:02:13.932Z,1017.80
2022-11-13T07:03:13.915Z,1017.80
2022-11-13T07:04:13.985Z,1017.78
2022-11-13T07:05:13.914Z,1017.78
2022-11-13T07:06:13.875Z,1017.78
2022-11-13T07:07:13.945Z,1017.79
2022-11-13T07:08:13.866Z,1017.75
2022-11-13T07:09:13.851Z,1017.78
2022-11-13T07:10:13.855Z,1017.79
2022-11-13T07:11:13.834Z,1017.81
2022-11-13T07:12:13.814Z,1017.81
2022-11-13T07:13:13.825Z,1017.85
2022-11-13T07:14:13.806Z,1017.85
2022-11-13T07:15:13.803Z,1017.87
2022-11-13T07:16:17.267Z,1017.85
2022-11-13T07:17:13.764Z,1017.85
2022-11-13T07:18:13.754Z,1017.85
2022-11-13T07:19:13.752Z,1017.86
2022-11-13T07:20:13.752Z,1017.83
2022-11-13T07:21:13.713Z,1017.88
2022-11-13T07:22:13.716Z,1017.89
2022-11-13T07:23:13.697Z,1017.89
2022-11-13T07:24:16.952Z,1017.87
2022-11-13T07:25:13.696Z,1017.87
2022-11-13T07:26:13.744Z,1017.89
2022-11-13T07:27:13.646Z,1017.86
2022-11-13T07:28:13.669Z,1017.92
2022-11-13T07:29:13.631Z,1017.85
2022-11-13T07:30:13.697Z,1017.89
2022-11-13T07:31:13.619Z,1017.92
2022-11-13T07:32:13.638Z,1017.89
2022-11-13T07:33:13.590Z,1017.87
2022-11-13T07:34:13.638Z,1017.85
2022-11-13T07:35:13.592Z,1017.84
2022-11-13T07:36:13.577Z,1017.82
2022-11-13T07:37:13.545Z,1017.82
2022-11-13T07:38:13.563Z,1017.84
2022-11-13T07:39:13.527Z,1017.79
2022-11-13T07:40:13.526Z,1017.76
2022-11-13T07:41:13.497Z,1017.79
2022-11-13T07:42:13.496Z,1017.76
2022-11-13T07:43:13.485Z,1017.77
2022-11-13T07:44:22.012Z,1017.74
2022-11-13T07:45:14.458Z,1017.76
2022-11-13T07:46:13.449Z,1017.72
2022-11-13T07:47:13.431Z,1017.65
2022-11-13T07:48:13.419Z,1017.66
2022-11-13T07:49:13.409Z,1017.67
2022-11-13T07:50:13.468Z,1017.71
2022-11-13T07:51:13.379Z,1017.69
2022-11-13T07:52:13.398Z,1017.68
2022-11-13T07:53:13.371Z,1017.69
2022-11-13T07:54:13.360Z,1017.66
2022-11-13T07:55:13.372Z,1017.67
2022-11-13T07:56:13.376Z,1017.60
2022-11-13T07:57:13.320Z,1017.62
2022-11-13T07:58:13.519Z,1017.67
2022-11-13T07:59:13.311Z,1017.64
2022-11-13T08:00:13.362Z,1017.64
2022-11-13T08:01:13.317Z,1017.58
2022-11-13T08:02:13.286Z,1017.53
2022-11-13T08:03:13.266Z,1017.51
2022-11-13T08:04:13.268Z,1017.48
2022-11-13T08:05:13.282Z,1017.55
2022-11-13T08:06:13.255Z,1017.49
2022-11-13T08:07:13.239Z,1017.46
2022-11-13T08:08:13.250Z,1017.50
2022-11-13T08:09:13.191Z,1017.50
2022-11-13T08:10:13.225Z,1017.50
2022-11-13T08:11:13.239Z,1017.53
2022-11-13T08:12:13.169Z,1017.51
2022-11-13T08:13:13.157Z,1017.51
2022-11-13T08:14:13.178Z,1017.52
2022-11-13T08:15:13.698Z,1017.52
2022-11-13T08:16:13.149Z,1017.54
2022-11-13T08:17:13.144Z,1017.53
2022-11-13T08:18:13.332Z,1017.53
2022-11-13T08:19:13.087Z,1017.53
2022-11-13T08:20:13.152Z,1017.50
2022-11-13T08:21:15.090Z,1017.52
2022-11-13T08:22:13.064Z,1017.47
2022-11-13T08:23:13.042Z,1017.50
2022-11-13T08:24:13.029Z,1017.50
2022-11-13T08:25:13.049Z,1017.50
2022-11-13T08:26:13.763Z,1017.50
2022-11-13T08:27:12.986Z,1017.48
2022-11-13T08:28:13.561Z,1017.46
2022-11-13T08:29:12.976Z,1017.45
2022-11-13T08:30:12.993Z,1017.45
2022-11-13T08:31:12.946Z,1017.43
2022-11-13T08:32:12.994Z,1017.42
2022-11-13T08:33:12.925Z,1017.38
2022-11-13T08:34:12.916Z,1017.43
2022-11-13T08:35:18.804Z,1017.42
2022-11-13T08:36:13.944Z,1017.46
2022-11-13T08:37:12.904Z,1017.42
2022-11-13T08:38:12.907Z,1017.41
2022-11-13T08:39:12.855Z,1017.41
2022-11-13T08:40:13.016Z,1017.40
2022-11-13T08:41:12.846Z,1017.36
2022-11-13T08:42:12.864Z,1017.38
2022-11-13T08:43:12.820Z,1017.31
2022-11-13T08:44:12.936Z,1017.28
2022-11-13T08:45:12.804Z,1017.32
2022-11-13T08:46:12.795Z,1017.28
2022-11-13T08:47:12.765Z,1017.27
2022-11-13T08:48:12.768Z,1017.26
2022-11-13T08:49:12.758Z,1017.23
2022-11-13T08:50:12.911Z,1017.24
2022-11-13T08:51:12.726Z,1017.19
2022-11-13T08:52:12.760Z,1017.23
2022-11-13T08:53:12.706Z,1017.22
2022-11-13T08:54:12.758Z,1017.22
2022-11-13T08:55:12.688Z,1017.17
2022-11-13T08:56:12.739Z,1017.15
2022-11-13T08:57:12.656Z,1017.14
2022-11-13T08:58:12.659Z,1017.12
2022-11-13T08:59:12.682Z,1017.09
2022-11-13T09:00:12.709Z,1017.09
2022-11-13T09:01:12.619Z,1017.14
2022-11-13T09:02:12.628Z,1017.10
2022-11-13T09:03:12.622Z,1017.07
2022-11-13T09:04:12.751Z,1017.04
2022-11-13T09:05:12.600Z,1017.11
2022-11-13T09:06:12.580Z,1017.11
2022-11-13T09:07:12.608Z,1017.09
2022-11-13T09:08:12.593Z,1017.10
2022-11-13T09:09:12.539Z,1017.11
2022-11-13T09:10:12.569Z,1017.07
2022-11-13T09:11:12.533Z,1017.09
2022-11-13T09:12:12.512Z,1017.08
2022-11-13T09:13:12.518Z,1017.06
2022-11-13T09:14:12.527Z,1017.07
2022-11-13T09:15:12.479Z,1017.07
2022-11-13T09:16:12.556Z,1017.10
2022-11-13T09:17:12.464Z,1017.10
2022-11-13T09:18:12.431Z,1017.10
2022-11-13T09:19:12.431Z,1017.04
2022-11-13T09:20:13.962Z,1017.02
2022-11-13T09:21:12.411Z,1017.05
2022-11-13T09:22:12.423Z,1017.05
2022-11-13T09:23:12.385Z,1017.03
2022-11-13T09:24:12.393Z,1017.02
2022-11-13T09:25:12.372Z,1017.00
2022-11-13T09:26:12.543Z,1016.91
2022-11-13T09:27:12.331Z,1016.94
2022-11-13T09:28:12.433Z,1016.96
2022-11-13T09:29:12.345Z,1016.96
2022-11-13T09:30:12.303Z,1016.98
2022-11-13T09:31:12.303Z,1016.95
2022-11-13T09:32:12.302Z,1016.99
2022-11-13T09:33:12.282Z,1016.95
2022-11-13T09:34:12.334Z,1017.01
2022-11-13T09:35:12.254Z,1017.04
2022-11-13T09:36:13.004Z,1017.02
2022-11-13T09:37:12.234Z,1017.00
2022-11-13T09:38:12.220Z,1016.95
2022-11-13T09:39:12.221Z,1016.93
2022-11-13T09:40:12.211Z,1016.94
2022-11-13T09:41:12.183Z,1016.95
2022-11-13T09:42:12.235Z,1016.94
2022-11-13T09:43:12.212Z,1016.94
2022-11-13T09:44:12.262Z,1016.94
2022-11-13T09:45:12.174Z,1016.91
2022-11-13T09:46:12.136Z,1016.95
2022-11-13T09:47:12.125Z,1016.93
2022-11-13T09:48:12.119Z,1016.93
2022-11-13T09:49:12.106Z,1016.92
2022-11-13T09:50:12.105Z,1016.91
2022-11-13T09:51:12.074Z,1016.92
2022-11-13T09:52:12.179Z,1016.89
2022-11-13T09:53:12.096Z,1016.91
2022-11-13T09:54:12.194Z,1016.88
2022-11-13T09:55:12.046Z,1016.88
2022-11-13T09:56:12.026Z,1016.90
2022-11-13T09:57:12.019Z,1016.92
2022-11-13T09:58:12.065Z,1016.90
2022-11-13T09:59:11.987Z,1016.88
2022-11-13T10:00:11.998Z,1016.87
2022-11-13T10:01:11.996Z,1016.87
2022-11-13T10:02:12.000Z,1016.81
2022-11-13T10:03:11.966Z,1016.74
2022-11-13T10:04:14.367Z,1016.69
2022-11-13T10:05:11.942Z,1016.68
2022-11-13T10:06:11.917Z,1016.73
2022-11-13T10:07:11.928Z,1016.71
2022-11-13T10:08:11.928Z,1016.69
2022-11-13T10:09:11.892Z,1016.72
2022-11-13T10:10:11.906Z,1016.71
2022-11-13T10:11:11.913Z,1016.67
2022-11-13T10:12:11.850Z,1016.67
2022-11-13T10:13:11.846Z,1016.70
2022-11-13T10:14:11.840Z,1016.79
2022-11-13T10:15:11.836Z,1016.79
2022-11-13T10:16:11.818Z,1016.76
2022-11-13T10:17:11.835Z,1016.79
2022-11-13T10:18:11.805Z,1016.79
2022-11-13T10:19:11.832Z,1016.75
2022-11-13T10:20:12.515Z,1016.76
2022-11-13T10:21:11.743Z,1016.83
2022-11-13T10:22:32.277Z,1016.78
2022-11-13T10:23:12.837Z,1016.75
2022-11-13T10:24:14.312Z,1016.75
2022-11-13T10:25:11.727Z,1016.72
2022-11-13T10:26:11.725Z,1016.69
2022-11-13T10:27:11.839Z,1016.68
2022-11-13T10:28:35.360Z,1016.69
2022-11-13T10:29:12.806Z,1016.61
2022-11-13T10:30:11.658Z,1016.66
2022-11-13T10:31:11.664Z,1016.62
2022-11-13T10:32:11.651Z,1016.61
2022-11-13T10:33:11.618Z,1016.54
2022-11-13T10:34:12.014Z,1016.53
2022-11-13T10:35:11.599Z,1016.52
2022-11-13T10:36:11.580Z,1016.50
2022-11-13T10:37:11.571Z,1016.52
2022-11-13T10:38:12.442Z,1016.41
2022-11-13T10:39:11.545Z,1016.42
2022-11-13T10:40:11.803Z,1016.38
2022-11-13T10:41:11.612Z,1016.35
2022-11-13T10:42:11.610Z,1016.34
2022-11-13T10:43:11.513Z,1016.38
2022-11-13T10:44:11.533Z,1016.34
2022-11-13T10:45:12.402Z,1016.34
2022-11-13T10:46:11.475Z,1016.30
2022-11-13T10:47:11.475Z,1016.29
2022-11-13T10:48:12.395Z,1016.26
2022-11-13T10:49:11.476Z,1016.22
2022-11-13T10:50:11.452Z,1016.21
2022-11-13T10:51:11.468Z,1016.16
2022-11-13T10:52:11.491Z,1016.19
2022-11-13T10:53:11.415Z,1016.18
2022-11-13T10:54:11.633Z,1016.15
2022-11-13T10:55:11.411Z,1016.14
2022-11-13T10:56:11.380Z,1016.12
2022-11-13T10:57:11.373Z,1016.10
2022-11-13T10:58:11.371Z,1016.06
2022-11-13T10:59:11.353Z,1016.04
2022-11-13T11:00:12.273Z,1016.01
2022-11-13T11:01:11.342Z,1015.97
2022-11-13T11:02:11.387Z,1015.94
2022-11-13T11:03:11.294Z,1015.90
2022-11-13T11:04:11.346Z,1015.92
2022-11-13T11:05:11.284Z,1015.91
2022-11-13T11:06:11.263Z,1015.90
2022-11-13T11:07:20.113Z,1015.83
2022-11-13T11:08:12.331Z,1015.81
2022-11-13T11:09:11.247Z,1015.79
2022-11-13T11:10:12.098Z,1015.74
2022-11-13T11:11:11.232Z,1015.69
2022-11-13T11:12:11.208Z,1015.67
2022-11-13T11:13:11.200Z,1015.63
2022-11-13T11:14:11.968Z,1015.60
2022-11-13T11:15:11.180Z,1015.59
2022-11-13T11:16:11.172Z,1015.57
2022-11-13T11:17:11.166Z,1015.51
2022-11-13T11:18:11.153Z,1015.48
2022-11-13T11:19:11.153Z,1015.47
2022-11-13T11:20:11.172Z,1015.44
2022-11-13T11:21:11.127Z,1015.43
2022-11-13T11:22:11.203Z,1015.41
2022-11-13T11:23:11.095Z,1015.37
2022-11-13T11:24:11.118Z,1015.33
2022-11-13T11:25:11.272Z,1015.28
2022-11-13T11:26:11.078Z,1015.29
2022-11-13T11:27:11.057Z,1015.25
2022-11-13T11:28:11.037Z,1015.24
2022-11-13T11:29:11.050Z,1015.23
2022-11-13T11:30:11.038Z,1015.22
2022-11-13T11:31:11.040Z,1015.22
2022-11-13T11:32:11.019Z,1015.17
2022-11-13T11:33:11.015Z,1015.17
2022-11-13T11:34:11.141Z,1015.15
2022-11-13T11:35:10.978Z,1015.13
2022-11-13T11:36:10.963Z,1015.08
2022-11-13T11:37:10.964Z,1015.08
2022-11-13T11:38:10.962Z,1015.05
2022-11-13T11:39:10.947Z,1015.03
2022-11-13T11:40:10.999Z,1015.03
2022-11-13T11:41:16.236Z,1014.98
2022-11-13T11:42:11.914Z,1014.97
2022-11-13T11:43:11.035Z,1014.94
2022-11-13T11:44:11.836Z,1014.93
2022-11-13T11:45:10.881Z,1014.93
2022-11-13T11:46:10.866Z,1014.92
2022-11-13T11:47:10.966Z,1014.92
2022-11-13T11:48:10.838Z,1014.92
2022-11-13T11:49:10.837Z,1014.89
2022-11-13T11:50:10.912Z,1014.88
2022-11-13T11:51:10.859Z,1014.82
2022-11-13T11:52:10.903Z,1014.81
2022-11-13T11:53:10.781Z,1014.78
2022-11-13T11:54:10.834Z,1014.75
2022-11-13T11:55:10.801Z,1014.72
2022-11-13T11:56:10.863Z,1014.72
2022-11-13T11:57:10.742Z,1014.68
2022-11-13T11:58:10.750Z,1014.65
2022-11-13T11:59:10.753Z,1014.66
2022-11-13T12:00:10.871Z,1014.63
2022-11-13T12:01:10.705Z,1014.65
2022-11-13T12:02:10.726Z,1014.58
2022-11-13T12:03:10.685Z,1014.55
2022-11-13T12:04:10.757Z,1014.52
2022-11-13T12:05:13.233Z,1014.53